createdAt,value
2023-02-11T00:02:36.149Z,-4.81
2023-02-11T00:05:38.731Z,-4.78
2023-02-11T00:08:41.119Z,-4.92
2023-02-11T00:11:43.618Z,-4.91
2023-02-11T00:14:46.041Z,-5.03
2023-02-11T00:17:48.490Z,-5.13
2023-02-11T00:20:50.907Z,-5.12
2023-02-11T00:23:54.964Z,-5.26
2023-02-11T00:26:57.586Z,-5.34
2023-02-11T00:30:02.286Z,-5.50
2023-02-11T00:33:06.461Z,-5.22
2023-02-11T00:36:12.166Z,-5.40
2023-02-11T00:39:14.594Z,-5.56
2023-02-11T00:42:17.126Z,-5.67
2023-02-11T00:45:21.439Z,-5.94
2023-02-11T00:48:23.983Z,-5.98
2023-02-11T00:51:28.166Z,-6.04
2023-02-11T00:54:31.665Z,-5.93
2023-02-11T00:57:34.145Z,-5.94
2023-02-11T01:00:36.706Z,-5.93
2023-02-11T01:03:40.063Z,-5.82
2023-02-11T01:06:42.610Z,-5.73
2023-02-11T01:09:45.066Z,-5.66
2023-02-11T01:12:47.874Z,-5.78
2023-02-11T01:15:50.630Z,-5.62
2023-02-11T01:18:53.302Z,-5.58
2023-02-11T01:21:55.705Z,-5.57
2023-02-11T01:24:58.180Z,-5.52
2023-02-11T01:28:00.660Z,-5.63
2023-02-11T01:31:05.194Z,-5.60
2023-02-11T01:34:08.493Z,-5.81
2023-02-11T01:37:12.664Z,-5.86
2023-02-11T01:40:17.215Z,-5.84
2023-02-11T01:43:20.772Z,-5.84
2023-02-11T01:46:38.277Z,-5.63
2023-02-11T01:49:47.278Z,-5.71
2023-02-11T01:52:49.733Z,-5.73
2023-02-11T01:56:10.949Z,-5.66
2023-02-11T01:59:22.769Z,-5.58
2023-02-11T02:02:37.482Z,-5.59
2023-02-11T02:06:01.406Z,-5.46
2023-02-11T02:09:13.284Z,-5.48
2023-02-11T02:12:15.769Z,-5.54
2023-02-11T02:15:19.454Z,-5.60
2023-02-11T02:18:44.940Z,-5.50
2023-02-11T02:22:26.208Z,-5.58
2023-02-11T02:25:48.489Z,-5.71
2023-02-11T02:29:23.331Z,-5.65
2023-02-11T02:32:37.848Z,-5.61
2023-02-11T02:35:52.230Z,-5.49
2023-02-11T02:39:06.137Z,-5.72
2023-02-11T02:42:09.501Z,-5.73
2023-02-11T02:45:12.700Z,-5.81
2023-02-11T02:48:33.027Z,-5.78
2023-02-11T02:51:38.969Z,-5.84
2023-02-11T02:54:56.520Z,-5.92
2023-02-11T02:58:01.716Z,-5.94
2023-02-11T03:01:22.406Z,-6.00
2023-02-11T03:04:35.972Z,-6.41
2023-02-11T03:07:57.095Z,-6.57
2023-02-11T03:11:00.919Z,-6.72
2023-02-11T03:14:06.487Z,-6.52
2023-02-11T03:17:10.151Z,-6.59
2023-02-11T03:20:15.299Z,-6.44
2023-02-11T03:23:28.872Z,-6.46
2023-02-11T03:26:38.587Z,-6.18
2023-02-11T03:29:51.836Z,-6.27
2023-02-11T03:33:01.534Z,-6.18
2023-02-11T03:36:08.091Z,-6.35
2023-02-11T03:39:11.291Z,-6.60
2023-02-11T03:42:15.447Z,-6.56
2023-02-11T03:45:20.807Z,-6.55
2023-02-11T03:48:30.933Z,-6.46
2023-02-11T03:51:33.980Z,-6.55
2023-02-11T03:54:36.776Z,-6.48
2023-02-11T03:57:39.327Z,-6.73
2023-02-11T04:00:43.516Z,-6.52
2023-02-11T04:03:45.912Z,-6.63
2023-02-11T04:06:48.314Z,-6.57
2023-02-11T04:09:50.816Z,-6.61
2023-02-11T04:12:53.362Z,-6.52
2023-02-11T04:15:55.783Z,-6.50
2023-02-11T04:18:58.856Z,-6.41
2023-02-11T04:22:01.521Z,-6.53
2023-02-11T04:25:05.257Z,-6.38
2023-02-11T04:28:07.717Z,-6.35
2023-02-11T04:31:12.121Z,-6.46
2023-02-11T04:34:14.681Z,-6.49
2023-02-11T04:37:17.183Z,-6.44
2023-02-11T04:40:19.765Z,-6.38
2023-02-11T04:43:22.195Z,-6.32
2023-02-11T04:46:25.058Z,-6.30
2023-02-11T04:49:28.500Z,-6.45
2023-02-11T04:52:30.938Z,-6.72
2023-02-11T04:55:33.307Z,-6.56
2023-02-11T04:58:35.773Z,-6.53
2023-02-11T05:01:38.303Z,-6.56
2023-02-11T05:04:40.831Z,-6.77
2023-02-11T05:07:43.555Z,-6.68
2023-02-11T05:10:47.578Z,-6.58
2023-02-11T05:13:50.592Z,-6.51
2023-02-11T05:16:53.173Z,-6.61
2023-02-11T05:19:55.566Z,-6.40
2023-02-11T05:22:57.935Z,-6.42
2023-02-11T05:26:00.408Z,-6.18
2023-02-11T05:29:02.939Z,-6.31
2023-02-11T05:32:05.393Z,-6.36
2023-02-11T05:35:09.442Z,-6.52
2023-02-11T05:38:11.956Z,-6.44
2023-02-11T05:41:14.379Z,-6.65
2023-02-11T05:44:16.762Z,-6.71
2023-02-11T05:47:19.158Z,-6.59
2023-02-11T05:50:21.689Z,-6.70
2023-02-11T05:53:26.768Z,-6.93
2023-02-11T05:56:29.210Z,-6.85
2023-02-11T05:59:31.733Z,-6.79
2023-02-11T06:02:34.532Z,-6.58
2023-02-11T06:05:37.024Z,-6.56
2023-02-11T06:08:40.020Z,-6.68
2023-02-11T06:11:42.540Z,-6.52
2023-02-11T06:14:45.850Z,-6.47
2023-02-11T06:17:48.266Z,-6.36
2023-02-11T06:20:50.834Z,-6.30
2023-02-11T06:23:53.253Z,-6.24
2023-02-11T06:26:55.662Z,-5.95
2023-02-11T06:29:58.546Z,-5.89
2023-02-11T06:33:00.997Z,-5.88
2023-02-11T06:36:04.938Z,-5.75
2023-02-11T06:39:08.212Z,-5.49
2023-02-11T06:42:10.721Z,-5.42
2023-02-11T06:45:13.447Z,-5.28
2023-02-11T06:48:16.069Z,-5.11
2023-02-11T06:51:18.828Z,-5.03
2023-02-11T06:54:21.286Z,-5.11
2023-02-11T06:57:23.672Z,-5.18
2023-02-11T07:00:26.659Z,-5.25
2023-02-11T07:03:29.580Z,-5.00
2023-02-11T07:06:32.218Z,-4.87
2023-02-11T07:09:34.781Z,-4.73
2023-02-11T07:12:37.534Z,-4.66
2023-02-11T07:15:40.013Z,-4.48
2023-02-11T07:18:42.736Z,-4.41
2023-02-11T07:21:45.727Z,-4.42
2023-02-11T07:24:48.414Z,-4.31
2023-02-11T07:27:51.086Z,-4.12
2023-02-11T07:30:53.626Z,-4.17
2023-02-11T07:33:59.973Z,-4.05
2023-02-11T07:37:02.951Z,-3.93
2023-02-11T07:40:05.917Z,-3.86
2023-02-11T07:43:08.445Z,-4.04
2023-02-11T07:46:16.590Z,-3.80
2023-02-11T07:49:18.978Z,-3.72
2023-02-11T07:52:21.370Z,-3.79
2023-02-11T07:55:24.106Z,-3.83
2023-02-11T07:58:26.523Z,-3.96
2023-02-11T08:01:29.876Z,-3.89
2023-02-11T08:04:32.302Z,-3.84
2023-02-11T08:07:34.658Z,-3.84
2023-02-11T08:10:37.172Z,-3.46
2023-02-11T08:13:40.020Z,-3.36
2023-02-11T08:16:42.564Z,-3.33
2023-02-11T08:19:45.025Z,-3.49
2023-02-11T08:22:47.654Z,-3.37
2023-02-11T08:25:50.087Z,-3.14
2023-02-11T08:28:53.993Z,-3.04
2023-02-11T08:31:56.488Z,-2.83
2023-02-11T08:34:59.015Z,-2.74
2023-02-11T08:38:01.608Z,-2.76
2023-02-11T08:41:04.350Z,-2.95
2023-02-11T08:44:06.983Z,-3.03
2023-02-11T08:47:09.504Z,-2.88
2023-02-11T08:50:12.067Z,-2.73
2023-02-11T08:53:14.531Z,-2.40
2023-02-11T08:56:18.194Z,-2.33
2023-02-11T08:59:20.825Z,-2.35
2023-02-11T09:02:23.312Z,-2.19
2023-02-11T09:05:25.974Z,-2.07
2023-02-11T09:08:28.436Z,-1.91
2023-02-11T09:11:34.026Z,-1.75
2023-02-11T09:14:36.426Z,-1.44
2023-02-11T09:17:38.915Z,-1.70
2023-02-11T09:20:41.626Z,-1.68
2023-02-11T09:23:44.826Z,-1.77
2023-02-11T09:26:47.249Z,-1.92
2023-02-11T09:29:50.322Z,-1.76
2023-02-11T09:32:52.755Z,-1.95
2023-02-11T09:35:55.430Z,-1.92
2023-02-11T09:38:59.429Z,-1.76
2023-02-11T09:42:37.464Z,-1.55
2023-02-11T09:45:39.972Z,-1.60
2023-02-11T09:48:44.507Z,-1.45
2023-02-11T09:51:55.939Z,-1.11
2023-02-11T09:55:01.178Z,-1.24
2023-02-11T09:58:11.114Z,-0.99
2023-02-11T10:01:35.925Z,-0.80
2023-02-11T10:05:16.039Z,-0.56
2023-02-11T10:08:34.425Z,-0.48
2023-02-11T10:12:11.070Z,-0.69
2023-02-11T10:15:14.142Z,-0.75
2023-02-11T10:18:38.704Z,-0.41
2023-02-11T10:21:47.838Z,-0.44
2023-02-11T10:24:54.564Z,-0.51
2023-02-11T10:27:58.485Z,-0.64
2023-02-11T10:31:03.979Z,-0.78
2023-02-11T10:34:09.718Z,-0.57
2023-02-11T10:37:13.915Z,-0.59
2023-02-11T10:40:28.997Z,-0.36
2023-02-11T10:43:32.414Z,-0.35
2023-02-11T10:46:40.242Z,-0.35
2023-02-11T10:49:44.463Z,-0.24
2023-02-11T10:52:46.936Z,-0.37
2023-02-11T10:55:52.901Z,-0.57
2023-02-11T10:58:59.363Z,-0.49
2023-02-11T11:02:06.080Z,-0.73
2023-02-11T11:05:20.546Z,-0.53
2023-02-11T11:08:44.704Z,-0.63
2023-02-11T11:11:53.898Z,-0.37
2023-02-11T11:15:01.759Z,-0.08
2023-02-11T11:18:23.619Z,0.28
2023-02-11T11:21:35.559Z,0.47
2023-02-11T11:24:45.082Z,0.87
2023-02-11T11:27:52.093Z,1.10
2023-02-11T11:30:56.129Z,1.50
2023-02-11T11:34:00.145Z,1.53
2023-02-11T11:37:22.475Z,1.48
2023-02-11T11:40:33.707Z,1.34
2023-02-11T11:43:37.678Z,1.45
2023-02-11T11:46:42.574Z,1.55
2023-02-11T11:49:56.877Z,1.86
2023-02-11T11:53:36.426Z,1.88
2023-02-11T11:56:45.998Z,1.71
2023-02-11T11:59:48.688Z,1.45
2023-02-11T12:02:56.887Z,1.33
2023-02-11T12:06:07.968Z,0.90
2023-02-11T12:09:25.966Z,0.94
2023-02-11T12:12:53.449Z,1.47
2023-02-11T12:16:16.528Z,1.86
2023-02-11T12:19:30.743Z,2.10
2023-02-11T12:23:05.199Z,2.17
2023-02-11T12:26:16.007Z,2.22
2023-02-11T12:29:33.763Z,2.45
2023-02-11T12:32:48.042Z,2.65
2023-02-11T12:36:01.350Z,2.59
2023-02-11T12:39:17.313Z,2.64
2023-02-11T12:43:13.739Z,2.49
2023-02-11T12:46:31.358Z,2.95
2023-02-11T12:49:54.106Z,3.02
2023-02-11T12:53:15.170Z,3.35
2023-02-11T12:56:41.871Z,4.36
2023-02-11T13:00:00.865Z,5.17
2023-02-11T13:03:09.575Z,5.87
2023-02-11T13:06:15.665Z,5.69
2023-02-11T13:09:33.277Z,5.36
2023-02-11T13:12:55.675Z,5.84
2023-02-11T13:16:32.539Z,5.52
2023-02-11T13:19:44.703Z,4.94
2023-02-11T13:23:01.928Z,5.23
2023-02-11T13:26:24.467Z,5.39
2023-02-11T13:30:03.017Z,5.42
2023-02-11T13:33:17.031Z,5.56
2023-02-11T13:36:21.218Z,6.01
2023-02-11T13:39:24.671Z,4.58
2023-02-11T13:42:29.040Z,4.84
2023-02-11T13:45:42.021Z,5.35
2023-02-11T13:48:53.076Z,6.02
2023-02-11T13:51:56.712Z,6.68
2023-02-11T13:55:22.820Z,6.91
2023-02-11T13:58:28.630Z,7.03
2023-02-11T14:02:09.360Z,5.94
2023-02-11T14:05:42.565Z,4.99
2023-02-11T14:09:08.878Z,4.21
2023-02-11T14:12:33.679Z,3.66
2023-02-11T14:15:40.111Z,3.25
2023-02-11T14:18:45.290Z,3.23
2023-02-11T14:21:47.794Z,3.12
2023-02-11T14:25:01.526Z,3.32
2023-02-11T14:28:15.470Z,3.06
2023-02-11T14:31:27.313Z,2.84
2023-02-11T14:34:51.454Z,3.08
2023-02-11T14:38:11.794Z,3.10
2023-02-11T14:41:25.637Z,2.88
2023-02-11T14:44:30.752Z,2.67
2023-02-11T14:47:58.288Z,2.73
2023-02-11T14:51:02.164Z,2.74
2023-02-11T14:54:13.423Z,2.77
2023-02-11T14:57:19.213Z,2.61
2023-02-11T15:00:22.903Z,2.49
2023-02-11T15:03:27.144Z,2.42
2023-02-11T15:06:49.678Z,2.18
2023-02-11T15:09:53.811Z,1.61
2023-02-11T15:12:56.553Z,1.17
2023-02-11T15:16:06.854Z,1.04
2023-02-11T15:19:20.087Z,0.70
2023-02-11T15:22:25.919Z,0.79
2023-02-11T15:25:34.363Z,0.67
2023-02-11T15:28:37.222Z,0.65
2023-02-11T15:31:40.076Z,0.36
2023-02-11T15:34:43.778Z,0.40
2023-02-11T15:37:47.381Z,0.45
2023-02-11T15:40:57.524Z,0.40
2023-02-11T15:44:00.182Z,0.53
2023-02-11T15:47:02.576Z,0.50
2023-02-11T15:50:06.411Z,0.60
2023-02-11T15:53:22.468Z,0.69
2023-02-11T15:56:37.627Z,0.61
2023-02-11T15:59:45.545Z,0.26
2023-02-11T16:02:50.799Z,0.02
2023-02-11T16:05:55.578Z,-0.09
2023-02-11T16:09:13.015Z,-0.06
2023-02-11T16:12:29.267Z,-0.15
2023-02-11T16:15:55.451Z,-0.04
2023-02-11T16:19:05.835Z,-0.10
2023-02-11T16:22:11.712Z,-0.05
2023-02-11T16:25:19.161Z,-0.08
2023-02-11T16:28:21.998Z,-0.10
2023-02-11T16:31:36.063Z,-0.22
2023-02-11T16:34:38.518Z,-0.24
2023-02-11T16:37:41.224Z,-0.18
2023-02-11T16:40:46.193Z,-0.15
2023-02-11T16:43:48.882Z,-0.01
2023-02-11T16:46:52.603Z,-0.08
2023-02-11T16:49:55.860Z,-0.49
2023-02-11T16:52:59.465Z,-0.73
2023-02-11T16:56:02.529Z,-0.65
2023-02-11T16:59:05.152Z,-0.52
2023-02-11T17:02:24.157Z,-0.49
2023-02-11T17:05:27.078Z,-0.41
2023-02-11T17:08:30.003Z,-0.26
2023-02-11T17:11:32.667Z,-0.16
2023-02-11T17:14:35.346Z,-0.26
2023-02-11T17:17:38.026Z,-0.55
2023-02-11T17:20:41.530Z,-0.65
2023-02-11T17:23:45.888Z,-0.38
2023-02-11T17:26:48.789Z,-0.34
2023-02-11T17:29:51.438Z,-0.49
2023-02-11T17:32:54.031Z,-0.31
2023-02-11T17:35:56.658Z,-0.33
2023-02-11T17:39:00.322Z,-0.37
2023-02-11T17:42:03.242Z,-0.51
2023-02-11T17:45:06.158Z,-0.65
2023-02-11T17:48:08.888Z,-0.75
2023-02-11T17:51:25.163Z,-1.11
2023-02-11T17:54:27.917Z,-1.24
2023-02-11T17:57:30.300Z,-1.14
2023-02-11T18:00:33.177Z,-1.21
2023-02-11T18:03:36.456Z,-1.50
2023-02-11T18:06:39.185Z,-1.32
2023-02-11T18:09:42.115Z,-1.06
2023-02-11T18:12:45.123Z,-0.89
2023-02-11T18:15:47.840Z,-0.80
2023-02-11T18:18:51.058Z,-0.68
2023-02-11T18:21:54.033Z,-0.56
2023-02-11T18:24:56.822Z,-0.59
2023-02-11T18:27:59.529Z,-0.63
2023-02-11T18:31:02.595Z,-0.50
2023-02-11T18:34:07.625Z,-0.35
2023-02-11T18:37:11.547Z,-0.26
2023-02-11T18:40:15.394Z,-0.33
2023-02-11T18:43:19.926Z,-0.26
2023-02-11T18:46:22.554Z,-0.34
2023-02-11T18:49:25.380Z,-0.28
2023-02-11T18:52:28.140Z,-0.31
2023-02-11T18:55:31.570Z,-0.15
2023-02-11T18:58:34.257Z,-0.20
2023-02-11T19:01:40.039Z,0.08
2023-02-11T19:04:42.959Z,0.00
2023-02-11T19:07:45.727Z,0.12
2023-02-11T19:10:49.455Z,0.12
2023-02-11T19:13:52.180Z,0.18
2023-02-11T19:16:57.310Z,0.10
2023-02-11T19:20:00.002Z,0.29
2023-02-11T19:23:02.849Z,0.32
2023-02-11T19:26:06.541Z,0.25
2023-02-11T19:29:10.624Z,0.17
2023-02-11T19:32:13.315Z,0.09
2023-02-11T19:35:16.195Z,0.01
2023-02-11T19:38:19.205Z,0.05
2023-02-11T19:41:23.212Z,0.15
2023-02-11T19:44:26.211Z,0.19
2023-02-11T19:47:29.033Z,0.33
2023-02-11T19:50:31.779Z,0.31
2023-02-11T19:53:34.832Z,0.31
2023-02-11T19:56:38.031Z,0.28
2023-02-11T19:59:40.744Z,0.31
2023-02-11T20:02:43.553Z,0.20
2023-02-11T20:05:47.885Z,0.28
2023-02-11T20:08:59.261Z,0.20
2023-02-11T20:12:02.053Z,0.26
2023-02-11T20:15:04.993Z,0.28
2023-02-11T20:18:07.786Z,0.25
2023-02-11T20:21:19.216Z,0.28
2023-02-11T20:24:24.805Z,0.17
2023-02-11T20:27:29.462Z,0.23
2023-02-11T20:30:32.201Z,0.36
2023-02-11T20:33:34.983Z,0.27
2023-02-11T20:36:38.733Z,0.25
2023-02-11T20:39:44.821Z,0.11
2023-02-11T20:42:47.516Z,0.17
2023-02-11T20:45:50.379Z,-0.06
2023-02-11T20:48:55.110Z,0.14
2023-02-11T20:51:58.549Z,0.12
2023-02-11T20:55:01.689Z,-0.01
2023-02-11T20:58:05.764Z,0.17
2023-02-11T21:01:16.707Z,0.06
2023-02-11T21:04:22.501Z,0.16
2023-02-11T21:07:28.166Z,0.07
2023-02-11T21:10:30.668Z,0.18
2023-02-11T21:13:34.298Z,0.16
2023-02-11T21:16:37.561Z,0.13
2023-02-11T21:19:41.582Z,0.09
2023-02-11T21:22:44.351Z,0.04
2023-02-11T21:25:47.126Z,0.18
2023-02-11T21:28:50.094Z,0.09
2023-02-11T21:31:52.855Z,0.13
2023-02-11T21:34:56.643Z,0.15
2023-02-11T21:37:59.322Z,-0.03
2023-02-11T21:41:05.558Z,0.03
2023-02-11T21:44:09.174Z,0.07
2023-02-11T21:47:11.940Z,0.02
2023-02-11T21:50:14.802Z,-0.09
2023-02-11T21:53:17.449Z,-0.31
2023-02-11T21:56:20.093Z,-0.24
2023-02-11T21:59:22.721Z,-0.53
2023-02-11T22:02:25.401Z,-0.66
2023-02-11T22:05:27.855Z,-0.74
2023-02-11T22:08:30.757Z,-0.74
2023-02-11T22:11:33.619Z,-0.88
2023-02-11T22:14:36.541Z,-1.07
2023-02-11T22:17:38.956Z,-1.29
2023-02-11T22:20:41.471Z,-1.29
2023-02-11T22:23:44.376Z,-1.23
2023-02-11T22:26:46.988Z,-1.43
2023-02-11T22:29:49.369Z,-1.41
2023-02-11T22:32:51.846Z,-1.54
2023-02-11T22:36:04.962Z,-1.62
2023-02-11T22:39:17.628Z,-1.64
2023-02-11T22:42:20.561Z,-1.82
2023-02-11T22:45:23.014Z,-1.84
2023-02-11T22:48:25.816Z,-1.80
2023-02-11T22:51:30.009Z,-1.87
2023-02-11T22:54:32.439Z,-1.78
2023-02-11T22:57:34.883Z,-1.72
2023-02-11T23:00:39.706Z,-1.82
2023-02-11T23:03:42.521Z,-1.68
2023-02-11T23:06:47.502Z,-1.64
2023-02-11T23:09:50.519Z,-1.61
2023-02-11T23:12:53.036Z,-1.52
2023-02-11T23:15:55.853Z,-1.57
2023-02-11T23:19:00.269Z,-1.70
2023-02-11T23:22:03.538Z,-1.81
2023-02-11T23:25:05.977Z,-1.78
2023-02-11T23:28:08.666Z,-1.86
2023-02-11T23:31:14.138Z,-1.82
2023-02-11T23:34:25.178Z,-2.22
2023-02-11T23:37:27.567Z,-2.16
2023-02-11T23:40:30.058Z,-2.25
2023-02-11T23:43:32.835Z,-2.34
2023-02-11T23:46:35.292Z,-2.35
2023-02-11T23:49:37.712Z,-2.39
2023-02-11T23:52:40.150Z,-2.35
2023-02-11T23:55:43.400Z,-2.46
2023-02-11T23:58:48.686Z,-2.57
